Clinton, Canada
Current Conditions -  °F | °C
As of 7:00 PM on Friday 28 Nov 2014 (Local Time) from CYIN Reporting Station
Light Snow Light Snow  
Wind Chill: -28°   Ceiling: 3600
Heat Index: -6°   Visibility: 2mi
Dew Point: -11°   Wind: 16mph
Humidity: 77%   Direction: 310°NW
Pressure: 29.61"   Gusts: 24mph
Location:  51.09°N, 121.58°W
Report Text: CYIN 290300Z AUTO 31014G21KT 2SM -SN OVC036 M21/M24 A2961 RMK SLP117
Loading
Personal Weather Stations






























Interactive Weather Map New forecast layout! Learn more

10-Day Weather Forecast

Advertisements
Track Severe Weather on mobile